sensor_id;sensor_type;location;lat;lon;timestamp;P1;durP1;ratioP1;P2;durP2;ratioP2
41201;SDS011;26936;50.524;8.684;2023-09-07T00:01:41;9.63;;;5.43;;
41201;SDS011;26936;50.524;8.684;2023-09-07T00:04:06;10.35;;;5.30;;
41201;SDS011;26936;50.524;8.684;2023-09-07T00:06:31;7.17;;;5.10;;
41201;SDS011;26936;50.524;8.684;2023-09-07T00:08:57;8.52;;;5.43;;
41201;SDS011;26936;50.524;8.684;2023-09-07T00:11:22;9.65;;;5.18;;
41201;SDS011;26936;50.524;8.684;2023-09-07T00:13:47;9.70;;;5.10;;
41201;SDS011;26936;50.524;8.684;2023-09-07T00:16:13;8.80;;;5.15;;
41201;SDS011;26936;50.524;8.684;2023-09-07T00:18:38;9.38;;;4.85;;
41201;SDS011;26936;50.524;8.684;2023-09-07T00:21:03;8.23;;;5.00;;
41201;SDS011;26936;50.524;8.684;2023-09-07T00:23:29;9.53;;;5.83;;
41201;SDS011;26936;50.524;8.684;2023-09-07T00:25:54;12.63;;;5.72;;
41201;SDS011;26936;50.524;8.684;2023-09-07T00:28:20;7.40;;;5.23;;
41201;SDS011;26936;50.524;8.684;2023-09-07T00:30:45;8.18;;;5.50;;
41201;SDS011;26936;50.524;8.684;2023-09-07T00:33:10;7.43;;;4.60;;
41201;SDS011;26936;50.524;8.684;2023-09-07T00:35:36;7.55;;;4.93;;
41201;SDS011;26936;50.524;8.684;2023-09-07T00:38:01;9.20;;;4.95;;
41201;SDS011;26936;50.524;8.684;2023-09-07T00:40:26;10.02;;;4.72;;
41201;SDS011;26936;50.524;8.684;2023-09-07T00:42:52;8.90;;;4.85;;
41201;SDS011;26936;50.524;8.684;2023-09-07T00:45:18;10.73;;;5.65;;
41201;SDS011;26936;50.524;8.684;2023-09-07T00:47:43;11.73;;;5.10;;
41201;SDS011;26936;50.524;8.684;2023-09-07T00:50:09;7.88;;;5.22;;
41201;SDS011;26936;50.524;8.684;2023-09-07T00:52:38;9.35;;;5.40;;
41201;SDS011;26936;50.524;8.684;2023-09-07T00:55:05;7.13;;;4.60;;
41201;SDS011;26936;50.524;8.684;2023-09-07T00:57:31;8.43;;;4.78;;
41201;SDS011;26936;50.524;8.684;2023-09-07T00:59:57;7.30;;;4.72;;
41201;SDS011;26936;50.524;8.684;2023-09-07T01:02:22;8.32;;;5.40;;
41201;SDS011;26936;50.524;8.684;2023-09-07T01:04:50;9.40;;;5.47;;
41201;SDS011;26936;50.524;8.684;2023-09-07T01:07:17;9.95;;;5.82;;
41201;SDS011;26936;50.524;8.684;2023-09-07T01:09:47;8.13;;;4.93;;
41201;SDS011;26936;50.524;8.684;2023-09-07T01:12:16;9.85;;;5.63;;
41201;SDS011;26936;50.524;8.684;2023-09-07T01:14:42;8.10;;;4.93;;
41201;SDS011;26936;50.524;8.684;2023-09-07T01:17:08;8.73;;;5.68;;
41201;SDS011;26936;50.524;8.684;2023-09-07T01:19:34;8.20;;;5.30;;
41201;SDS011;26936;50.524;8.684;2023-09-07T01:22:00;8.73;;;5.25;;
41201;SDS011;26936;50.524;8.684;2023-09-07T01:24:25;8.02;;;4.75;;
41201;SDS011;26936;50.524;8.684;2023-09-07T01:26:54;7.45;;;5.25;;
41201;SDS011;26936;50.524;8.684;2023-09-07T01:29:21;8.85;;;5.40;;
41201;SDS011;26936;50.524;8.684;2023-09-07T01:31:47;7.45;;;5.07;;
41201;SDS011;26936;50.524;8.684;2023-09-07T01:34:13;9.07;;;5.90;;
41201;SDS011;26936;50.524;8.684;2023-09-07T01:36:38;7.77;;;4.90;;
41201;SDS011;26936;50.524;8.684;2023-09-07T01:39:03;7.63;;;5.30;;
41201;SDS011;26936;50.524;8.684;2023-09-07T01:41:30;6.53;;;5.18;;
41201;SDS011;26936;50.524;8.684;2023-09-07T01:43:56;8.95;;;5.13;;
41201;SDS011;26936;50.524;8.684;2023-09-07T01:46:21;8.48;;;5.28;;
41201;SDS011;26936;50.524;8.684;2023-09-07T01:48:46;8.37;;;6.10;;
41201;SDS011;26936;50.524;8.684;2023-09-07T01:51:12;11.60;;;5.72;;
41201;SDS011;26936;50.524;8.684;2023-09-07T01:53:37;8.13;;;5.80;;
41201;SDS011;26936;50.524;8.684;2023-09-07T01:56:02;7.57;;;5.40;;
41201;SDS011;26936;50.524;8.684;2023-09-07T01:58:28;7.05;;;5.00;;
41201;SDS011;26936;50.524;8.684;2023-09-07T02:00:56;9.33;;;5.87;;
41201;SDS011;26936;50.524;8.684;2023-09-07T02:03:22;7.72;;;6.22;;
41201;SDS011;26936;50.524;8.684;2023-09-07T02:05:48;7.72;;;5.30;;
41201;SDS011;26936;50.524;8.684;2023-09-07T02:08:13;9.98;;;6.05;;
41201;SDS011;26936;50.524;8.684;2023-09-07T02:10:38;7.67;;;5.67;;
41201;SDS011;26936;50.524;8.684;2023-09-07T02:13:04;10.25;;;5.32;;
41201;SDS011;26936;50.524;8.684;2023-09-07T02:15:29;9.63;;;5.70;;
41201;SDS011;26936;50.524;8.684;2023-09-07T02:17:55;11.30;;;5.50;;
41201;SDS011;26936;50.524;8.684;2023-09-07T02:20:20;8.65;;;5.90;;
41201;SDS011;26936;50.524;8.684;2023-09-07T02:22:45;7.18;;;5.28;;
41201;SDS011;26936;50.524;8.684;2023-09-07T02:25:11;7.97;;;5.53;;
41201;SDS011;26936;50.524;8.684;2023-09-07T02:27:36;10.57;;;6.10;;
41201;SDS011;26936;50.524;8.684;2023-09-07T02:30:02;8.38;;;5.28;;
41201;SDS011;26936;50.524;8.684;2023-09-07T02:32:28;11.35;;;5.57;;
41201;SDS011;26936;50.524;8.684;2023-09-07T02:34:54;8.45;;;5.63;;
41201;SDS011;26936;50.524;8.684;2023-09-07T02:37:19;6.97;;;5.43;;
41201;SDS011;26936;50.524;8.684;2023-09-07T02:39:44;8.63;;;5.53;;
41201;SDS011;26936;50.524;8.684;2023-09-07T02:42:10;7.68;;;5.00;;
41201;SDS011;26936;50.524;8.684;2023-09-07T02:44:35;9.30;;;5.23;;
41201;SDS011;26936;50.524;8.684;2023-09-07T02:47:00;10.32;;;5.78;;
41201;SDS011;26936;50.524;8.684;2023-09-07T02:49:26;7.88;;;5.63;;
41201;SDS011;26936;50.524;8.684;2023-09-07T02:51:51;8.38;;;5.57;;
41201;SDS011;26936;50.524;8.684;2023-09-07T02:54:16;8.93;;;5.57;;
41201;SDS011;26936;50.524;8.684;2023-09-07T02:56:42;10.47;;;5.87;;
41201;SDS011;26936;50.524;8.684;2023-09-07T02:59:07;9.13;;;5.57;;
41201;SDS011;26936;50.524;8.684;2023-09-07T03:01:33;11.32;;;6.25;;
41201;SDS011;26936;50.524;8.684;2023-09-07T03:03:59;8.60;;;5.93;;
41201;SDS011;26936;50.524;8.684;2023-09-07T03:06:24;8.48;;;5.63;;
41201;SDS011;26936;50.524;8.684;2023-09-07T03:08:49;8.93;;;6.18;;
41201;SDS011;26936;50.524;8.684;2023-09-07T03:11:15;8.82;;;5.85;;
41201;SDS011;26936;50.524;8.684;2023-09-07T03:13:40;11.98;;;6.10;;
41201;SDS011;26936;50.524;8.684;2023-09-07T03:16:07;9.35;;;5.25;;
41201;SDS011;26936;50.524;8.684;2023-09-07T03:18:32;11.57;;;6.00;;
41201;SDS011;26936;50.524;8.684;2023-09-07T03:20:59;14.05;;;6.18;;
41201;SDS011;26936;50.524;8.684;2023-09-07T03:23:25;10.27;;;5.70;;
41201;SDS011;26936;50.524;8.684;2023-09-07T03:25:52;8.43;;;5.63;;
41201;SDS011;26936;50.524;8.684;2023-09-07T03:28:18;8.67;;;5.60;;
41201;SDS011;26936;50.524;8.684;2023-09-07T03:30:43;10.03;;;6.13;;
41201;SDS011;26936;50.524;8.684;2023-09-07T03:33:08;9.88;;;5.47;;
41201;SDS011;26936;50.524;8.684;2023-09-07T03:35:33;9.80;;;6.03;;
41201;SDS011;26936;50.524;8.684;2023-09-07T03:37:59;8.80;;;5.77;;
41201;SDS011;26936;50.524;8.684;2023-09-07T03:40:24;11.13;;;5.07;;
41201;SDS011;26936;50.524;8.684;2023-09-07T03:42:49;9.73;;;5.78;;
41201;SDS011;26936;50.524;8.684;2023-09-07T03:45:15;9.02;;;5.70;;
41201;SDS011;26936;50.524;8.684;2023-09-07T03:47:41;8.38;;;5.38;;
41201;SDS011;26936;50.524;8.684;2023-09-07T03:50:06;10.63;;;5.82;;
41201;SDS011;26936;50.524;8.684;2023-09-07T03:52:32;9.02;;;6.07;;
41201;SDS011;26936;50.524;8.684;2023-09-07T03:54:57;7.72;;;6.00;;
41201;SDS011;26936;50.524;8.684;2023-09-07T03:57:25;10.48;;;6.43;;
41201;SDS011;26936;50.524;8.684;2023-09-07T03:59:52;10.20;;;7.03;;
41201;SDS011;26936;50.524;8.684;2023-09-07T04:02:17;9.82;;;7.28;;
41201;SDS011;26936;50.524;8.684;2023-09-07T04:04:43;12.32;;;6.45;;
41201;SDS011;26936;50.524;8.684;2023-09-07T04:07:12;11.82;;;6.53;;
41201;SDS011;26936;50.524;8.684;2023-09-07T04:09:37;11.43;;;6.47;;
41201;SDS011;26936;50.524;8.684;2023-09-07T04:12:03;9.77;;;6.45;;
41201;SDS011;26936;50.524;8.684;2023-09-07T04:14:28;14.27;;;7.15;;
41201;SDS011;26936;50.524;8.684;2023-09-07T04:16:55;9.13;;;6.50;;
41201;SDS011;26936;50.524;8.684;2023-09-07T04:19:20;10.97;;;6.13;;
41201;SDS011;26936;50.524;8.684;2023-09-07T04:21:45;9.48;;;5.93;;
41201;SDS011;26936;50.524;8.684;2023-09-07T04:24:11;8.30;;;6.13;;
41201;SDS011;26936;50.524;8.684;2023-09-07T04:26:37;8.33;;;6.17;;
41201;SDS011;26936;50.524;8.684;2023-09-07T04:29:02;7.38;;;5.97;;
41201;SDS011;26936;50.524;8.684;2023-09-07T04:31:28;8.48;;;5.78;;
41201;SDS011;26936;50.524;8.684;2023-09-07T04:33:53;10.50;;;5.93;;
41201;SDS011;26936;50.524;8.684;2023-09-07T04:36:19;8.70;;;5.32;;
41201;SDS011;26936;50.524;8.684;2023-09-07T04:38:44;8.70;;;6.13;;
41201;SDS011;26936;50.524;8.684;2023-09-07T04:41:10;9.27;;;6.10;;
41201;SDS011;26936;50.524;8.684;2023-09-07T04:43:37;9.52;;;5.97;;
41201;SDS011;26936;50.524;8.684;2023-09-07T04:46:05;10.60;;;6.80;;
41201;SDS011;26936;50.524;8.684;2023-09-07T04:48:31;9.32;;;6.93;;
41201;SDS011;26936;50.524;8.684;2023-09-07T04:51:00;10.88;;;6.15;;
41201;SDS011;26936;50.524;8.684;2023-09-07T04:53:33;9.82;;;6.78;;
41201;SDS011;26936;50.524;8.684;2023-09-07T04:56:00;11.27;;;6.53;;
41201;SDS011;26936;50.524;8.684;2023-09-07T04:58:26;10.20;;;6.00;;
41201;SDS011;26936;50.524;8.684;2023-09-07T05:00:52;9.60;;;6.00;;
41201;SDS011;26936;50.524;8.684;2023-09-07T05:03:17;9.43;;;5.95;;
41201;SDS011;26936;50.524;8.684;2023-09-07T05:05:43;7.97;;;5.85;;
41201;SDS011;26936;50.524;8.684;2023-09-07T05:08:11;10.85;;;5.72;;
41201;SDS011;26936;50.524;8.684;2023-09-07T05:10:38;9.27;;;6.30;;
41201;SDS011;26936;50.524;8.684;2023-09-07T05:13:03;9.30;;;6.07;;
41201;SDS011;26936;50.524;8.684;2023-09-07T05:15:29;10.27;;;6.30;;
41201;SDS011;26936;50.524;8.684;2023-09-07T05:17:54;8.95;;;5.93;;
41201;SDS011;26936;50.524;8.684;2023-09-07T05:20:20;9.70;;;5.78;;
41201;SDS011;26936;50.524;8.684;2023-09-07T05:22:46;9.80;;;5.57;;
41201;SDS011;26936;50.524;8.684;2023-09-07T05:25:11;12.93;;;5.93;;
41201;SDS011;26936;50.524;8.684;2023-09-07T05:27:37;8.57;;;5.68;;
41201;SDS011;26936;50.524;8.684;2023-09-07T05:30:03;11.93;;;6.78;;
41201;SDS011;26936;50.524;8.684;2023-09-07T05:32:29;8.63;;;6.22;;
41201;SDS011;26936;50.524;8.684;2023-09-07T05:34:54;12.50;;;6.32;;
41201;SDS011;26936;50.524;8.684;2023-09-07T05:37:19;7.73;;;5.73;;
41201;SDS011;26936;50.524;8.684;2023-09-07T05:39:45;10.25;;;6.28;;
41201;SDS011;26936;50.524;8.684;2023-09-07T05:42:10;10.27;;;6.57;;
41201;SDS011;26936;50.524;8.684;2023-09-07T05:44:37;9.38;;;5.78;;
41201;SDS011;26936;50.524;8.684;2023-09-07T05:47:02;9.63;;;5.82;;
41201;SDS011;26936;50.524;8.684;2023-09-07T05:49:28;8.90;;;6.22;;
41201;SDS011;26936;50.524;8.684;2023-09-07T05:51:53;12.60;;;7.13;;
41201;SDS011;26936;50.524;8.684;2023-09-07T05:54:18;12.15;;;7.32;;
41201;SDS011;26936;50.524;8.684;2023-09-07T05:56:43;11.47;;;6.60;;
41201;SDS011;26936;50.524;8.684;2023-09-07T05:59:09;8.13;;;6.30;;
41201;SDS011;26936;50.524;8.684;2023-09-07T06:01:34;9.30;;;6.50;;
41201;SDS011;26936;50.524;8.684;2023-09-07T06:03:59;12.07;;;6.63;;
41201;SDS011;26936;50.524;8.684;2023-09-07T06:06:25;9.48;;;6.68;;
41201;SDS011;26936;50.524;8.684;2023-09-07T06:08:50;11.07;;;7.00;;
41201;SDS011;26936;50.524;8.684;2023-09-07T06:11:15;13.47;;;7.47;;
41201;SDS011;26936;50.524;8.684;2023-09-07T06:13:41;9.38;;;6.97;;
41201;SDS011;26936;50.524;8.684;2023-09-07T06:16:06;10.18;;;6.68;;
41201;SDS011;26936;50.524;8.684;2023-09-07T06:18:32;11.20;;;6.97;;
41201;SDS011;26936;50.524;8.684;2023-09-07T06:20:57;11.17;;;6.73;;
41201;SDS011;26936;50.524;8.684;2023-09-07T06:23:22;9.35;;;6.57;;
41201;SDS011;26936;50.524;8.684;2023-09-07T06:25:47;10.30;;;7.43;;
41201;SDS011;26936;50.524;8.684;2023-09-07T06:28:13;10.70;;;6.97;;
41201;SDS011;26936;50.524;8.684;2023-09-07T06:30:38;12.35;;;6.93;;
41201;SDS011;26936;50.524;8.684;2023-09-07T06:33:03;9.75;;;6.70;;
41201;SDS011;26936;50.524;8.684;2023-09-07T06:35:29;8.13;;;6.32;;
41201;SDS011;26936;50.524;8.684;2023-09-07T06:37:54;11.32;;;6.50;;
41201;SDS011;26936;50.524;8.684;2023-09-07T06:40:20;13.80;;;7.22;;
41201;SDS011;26936;50.524;8.684;2023-09-07T06:42:46;11.43;;;6.47;;
41201;SDS011;26936;50.524;8.684;2023-09-07T06:45:11;10.10;;;5.95;;
41201;SDS011;26936;50.524;8.684;2023-09-07T06:47:37;10.18;;;5.95;;
41201;SDS011;26936;50.524;8.684;2023-09-07T06:50:02;10.40;;;6.10;;
41201;SDS011;26936;50.524;8.684;2023-09-07T06:52:29;10.00;;;6.07;;
41201;SDS011;26936;50.524;8.684;2023-09-07T06:54:54;9.82;;;6.82;;
41201;SDS011;26936;50.524;8.684;2023-09-07T06:57:19;9.87;;;6.43;;
41201;SDS011;26936;50.524;8.684;2023-09-07T06:59:45;9.80;;;6.30;;
41201;SDS011;26936;50.524;8.684;2023-09-07T07:02:11;13.57;;;6.28;;
41201;SDS011;26936;50.524;8.684;2023-09-07T07:04:36;9.60;;;6.60;;
41201;SDS011;26936;50.524;8.684;2023-09-07T07:07:01;12.00;;;6.80;;
41201;SDS011;26936;50.524;8.684;2023-09-07T07:09:29;12.65;;;6.28;;
41201;SDS011;26936;50.524;8.684;2023-09-07T07:11:55;7.90;;;5.88;;
41201;SDS011;26936;50.524;8.684;2023-09-07T07:14:20;10.40;;;5.78;;
41201;SDS011;26936;50.524;8.684;2023-09-07T07:16:46;10.50;;;6.07;;
41201;SDS011;26936;50.524;8.684;2023-09-07T07:19:11;9.17;;;5.90;;
41201;SDS011;26936;50.524;8.684;2023-09-07T07:21:36;11.83;;;6.20;;
41201;SDS011;26936;50.524;8.684;2023-09-07T07:24:01;9.87;;;6.40;;
41201;SDS011;26936;50.524;8.684;2023-09-07T07:26:27;14.13;;;6.13;;
41201;SDS011;26936;50.524;8.684;2023-09-07T07:28:52;12.63;;;5.73;;
41201;SDS011;26936;50.524;8.684;2023-09-07T07:31:17;10.20;;;5.93;;
41201;SDS011;26936;50.524;8.684;2023-09-07T07:33:43;7.40;;;5.47;;
41201;SDS011;26936;50.524;8.684;2023-09-07T07:36:08;9.13;;;5.83;;
41201;SDS011;26936;50.524;8.684;2023-09-07T07:38:33;9.85;;;5.40;;
41201;SDS011;26936;50.524;8.684;2023-09-07T07:41:01;9.15;;;5.63;;
41201;SDS011;26936;50.524;8.684;2023-09-07T07:43:26;13.60;;;5.20;;
41201;SDS011;26936;50.524;8.684;2023-09-07T07:45:53;11.48;;;5.47;;
41201;SDS011;26936;50.524;8.684;2023-09-07T07:48:19;7.90;;;5.85;;
41201;SDS011;26936;50.524;8.684;2023-09-07T07:50:45;8.70;;;5.68;;
41201;SDS011;26936;50.524;8.684;2023-09-07T07:53:10;12.10;;;5.80;;
41201;SDS011;26936;50.524;8.684;2023-09-07T07:55:36;7.68;;;5.10;;
41201;SDS011;26936;50.524;8.684;2023-09-07T07:58:04;8.63;;;4.78;;
41201;SDS011;26936;50.524;8.684;2023-09-07T08:00:32;7.82;;;4.90;;
41201;SDS011;26936;50.524;8.684;2023-09-07T08:02:59;7.88;;;5.00;;
41201;SDS011;26936;50.524;8.684;2023-09-07T08:05:24;9.57;;;4.88;;
41201;SDS011;26936;50.524;8.684;2023-09-07T08:07:50;7.00;;;5.00;;
41201;SDS011;26936;50.524;8.684;2023-09-07T08:10:18;8.70;;;4.57;;
41201;SDS011;26936;50.524;8.684;2023-09-07T08:12:43;11.68;;;5.22;;
41201;SDS011;26936;50.524;8.684;2023-09-07T08:15:09;8.45;;;5.43;;
41201;SDS011;26936;50.524;8.684;2023-09-07T08:17:34;8.63;;;5.55;;
41201;SDS011;26936;50.524;8.684;2023-09-07T08:20:00;10.52;;;5.70;;
41201;SDS011;26936;50.524;8.684;2023-09-07T08:22:25;10.02;;;4.85;;
41201;SDS011;26936;50.524;8.684;2023-09-07T08:24:52;8.70;;;5.47;;
41201;SDS011;26936;50.524;8.684;2023-09-07T08:27:19;7.07;;;4.97;;
41201;SDS011;26936;50.524;8.684;2023-09-07T08:29:45;9.95;;;4.90;;
41201;SDS011;26936;50.524;8.684;2023-09-07T08:32:13;11.13;;;4.65;;
41201;SDS011;26936;50.524;8.684;2023-09-07T08:34:39;7.68;;;4.22;;
41201;SDS011;26936;50.524;8.684;2023-09-07T08:37:06;11.15;;;5.05;;
41201;SDS011;26936;50.524;8.684;2023-09-07T08:39:34;7.10;;;4.53;;
41201;SDS011;26936;50.524;8.684;2023-09-07T08:41:59;7.68;;;4.50;;
41201;SDS011;26936;50.524;8.684;2023-09-07T08:44:26;8.45;;;5.15;;
41201;SDS011;26936;50.524;8.684;2023-09-07T08:46:51;7.55;;;4.78;;
41201;SDS011;26936;50.524;8.684;2023-09-07T08:49:18;10.00;;;4.57;;
41201;SDS011;26936;50.524;8.684;2023-09-07T08:51:48;9.00;;;4.63;;
41201;SDS011;26936;50.524;8.684;2023-09-07T08:54:14;6.45;;;4.40;;
41201;SDS011;26936;50.524;8.684;2023-09-07T08:56:40;8.20;;;4.22;;
41201;SDS011;26936;50.524;8.684;2023-09-07T08:59:05;7.50;;;4.30;;
41201;SDS011;26936;50.524;8.684;2023-09-07T09:01:32;11.93;;;4.47;;
41201;SDS011;26936;50.524;8.684;2023-09-07T09:03:57;8.27;;;4.35;;
41201;SDS011;26936;50.524;8.684;2023-09-07T09:06:23;9.80;;;4.25;;
41201;SDS011;26936;50.524;8.684;2023-09-07T09:08:50;5.30;;;3.97;;
41201;SDS011;26936;50.524;8.684;2023-09-07T09:11:17;6.88;;;4.28;;
41201;SDS011;26936;50.524;8.684;2023-09-07T09:13:43;7.38;;;3.58;;
41201;SDS011;26936;50.524;8.684;2023-09-07T09:16:10;7.15;;;4.35;;
41201;SDS011;26936;50.524;8.684;2023-09-07T09:18:36;10.95;;;4.13;;
41201;SDS011;26936;50.524;8.684;2023-09-07T09:21:02;5.55;;;3.70;;
41201;SDS011;26936;50.524;8.684;2023-09-07T09:23:37;9.82;;;4.32;;
41201;SDS011;26936;50.524;8.684;2023-09-07T09:26:03;6.45;;;3.60;;
41201;SDS011;26936;50.524;8.684;2023-09-07T09:28:33;7.95;;;3.75;;
41201;SDS011;26936;50.524;8.684;2023-09-07T09:30:59;8.18;;;3.80;;
41201;SDS011;26936;50.524;8.684;2023-09-07T09:33:26;7.13;;;4.05;;
41201;SDS011;26936;50.524;8.684;2023-09-07T09:35:52;7.07;;;3.83;;
41201;SDS011;26936;50.524;8.684;2023-09-07T09:38:19;9.20;;;3.70;;
41201;SDS011;26936;50.524;8.684;2023-09-07T09:40:44;5.68;;;3.38;;
41201;SDS011;26936;50.524;8.684;2023-09-07T09:43:10;7.20;;;3.53;;
41201;SDS011;26936;50.524;8.684;2023-09-07T09:45:37;5.22;;;3.42;;
41201;SDS011;26936;50.524;8.684;2023-09-07T09:48:02;5.82;;;3.40;;
41201;SDS011;26936;50.524;8.684;2023-09-07T09:50:30;4.93;;;2.78;;
41201;SDS011;26936;50.524;8.684;2023-09-07T09:52:56;5.95;;;3.05;;
41201;SDS011;26936;50.524;8.684;2023-09-07T09:55:23;4.47;;;3.25;;
41201;SDS011;26936;50.524;8.684;2023-09-07T09:57:49;4.00;;;3.00;;
41201;SDS011;26936;50.524;8.684;2023-09-07T10:00:15;6.90;;;3.03;;
41201;SDS011;26936;50.524;8.684;2023-09-07T10:03:01;5.88;;;3.28;;
41201;SDS011;26936;50.524;8.684;2023-09-07T10:05:30;5.05;;;3.67;;
41201;SDS011;26936;50.524;8.684;2023-09-07T10:08:00;7.10;;;3.00;;
41201;SDS011;26936;50.524;8.684;2023-09-07T10:10:34;3.80;;;2.80;;
41201;SDS011;26936;50.524;8.684;2023-09-07T10:13:02;4.82;;;2.85;;
41201;SDS011;26936;50.524;8.684;2023-09-07T10:15:28;4.80;;;3.17;;
41201;SDS011;26936;50.524;8.684;2023-09-07T10:18:08;5.28;;;3.22;;
41201;SDS011;26936;50.524;8.684;2023-09-07T10:23:16;4.88;;;2.85;;
41201;SDS011;26936;50.524;8.684;2023-09-07T10:25:41;3.83;;;3.10;;
41201;SDS011;26936;50.524;8.684;2023-09-07T10:31:12;5.85;;;2.95;;
41201;SDS011;26936;50.524;8.684;2023-09-07T10:33:40;5.68;;;3.25;;
41201;SDS011;26936;50.524;8.684;2023-09-07T10:36:06;6.25;;;3.03;;
41201;SDS011;26936;50.524;8.684;2023-09-07T10:38:32;5.05;;;3.20;;
41201;SDS011;26936;50.524;8.684;2023-09-07T10:40:59;5.75;;;3.15;;
41201;SDS011;26936;50.524;8.684;2023-09-07T10:43:26;4.35;;;2.90;;
41201;SDS011;26936;50.524;8.684;2023-09-07T10:45:55;4.32;;;3.25;;
41201;SDS011;26936;50.524;8.684;2023-09-07T10:48:21;4.97;;;3.22;;
41201;SDS011;26936;50.524;8.684;2023-09-07T10:50:47;4.38;;;3.10;;
41201;SDS011;26936;50.524;8.684;2023-09-07T10:53:13;3.92;;;2.38;;
41201;SDS011;26936;50.524;8.684;2023-09-07T10:55:40;4.45;;;2.78;;
41201;SDS011;26936;50.524;8.684;2023-09-07T10:58:06;6.78;;;3.15;;
41201;SDS011;26936;50.524;8.684;2023-09-07T11:00:33;3.55;;;2.88;;
41201;SDS011;26936;50.524;8.684;2023-09-07T11:03:05;3.88;;;2.88;;
41201;SDS011;26936;50.524;8.684;2023-09-07T11:05:32;3.92;;;2.72;;
41201;SDS011;26936;50.524;8.684;2023-09-07T11:07:59;4.72;;;2.70;;
41201;SDS011;26936;50.524;8.684;2023-09-07T11:10:25;8.75;;;3.35;;
41201;SDS011;26936;50.524;8.684;2023-09-07T11:12:51;3.70;;;2.70;;
41201;SDS011;26936;50.524;8.684;2023-09-07T11:15:16;4.13;;;2.80;;
41201;SDS011;26936;50.524;8.684;2023-09-07T11:17:44;4.63;;;2.67;;
41201;SDS011;26936;50.524;8.684;2023-09-07T11:20:09;5.40;;;2.55;;
41201;SDS011;26936;50.524;8.684;2023-09-07T11:22:35;3.13;;;2.60;;
41201;SDS011;26936;50.524;8.684;2023-09-07T11:25:03;5.00;;;3.10;;
41201;SDS011;26936;50.524;8.684;2023-09-07T11:27:30;4.78;;;2.72;;
41201;SDS011;26936;50.524;8.684;2023-09-07T11:29:56;3.80;;;3.03;;
41201;SDS011;26936;50.524;8.684;2023-09-07T11:32:22;4.30;;;2.83;;
41201;SDS011;26936;50.524;8.684;2023-09-07T11:34:49;3.92;;;2.70;;
41201;SDS011;26936;50.524;8.684;2023-09-07T11:37:16;4.15;;;2.88;;
41201;SDS011;26936;50.524;8.684;2023-09-07T11:39:42;4.03;;;2.55;;
41201;SDS011;26936;50.524;8.684;2023-09-07T11:42:07;4.57;;;2.80;;
41201;SDS011;26936;50.524;8.684;2023-09-07T11:44:33;3.47;;;2.83;;
41201;SDS011;26936;50.524;8.684;2023-09-07T11:46:58;4.57;;;2.70;;
41201;SDS011;26936;50.524;8.684;2023-09-07T11:49:23;5.17;;;3.00;;
41201;SDS011;26936;50.524;8.684;2023-09-07T11:51:49;5.97;;;2.83;;
41201;SDS011;26936;50.524;8.684;2023-09-07T11:54:14;4.05;;;2.75;;
41201;SDS011;26936;50.524;8.684;2023-09-07T11:56:40;3.73;;;2.83;;
41201;SDS011;26936;50.524;8.684;2023-09-07T11:59:08;5.85;;;2.80;;
41201;SDS011;26936;50.524;8.684;2023-09-07T12:01:34;5.55;;;2.80;;
41201;SDS011;26936;50.524;8.684;2023-09-07T12:03:59;4.60;;;3.08;;
41201;SDS011;26936;50.524;8.684;2023-09-07T12:06:25;4.40;;;2.93;;
41201;SDS011;26936;50.524;8.684;2023-09-07T12:09:00;4.28;;;2.83;;
41201;SDS011;26936;50.524;8.684;2023-09-07T12:11:26;3.45;;;2.83;;
41201;SDS011;26936;50.524;8.684;2023-09-07T12:13:51;4.47;;;3.10;;
41201;SDS011;26936;50.524;8.684;2023-09-07T12:16:16;5.70;;;2.73;;
41201;SDS011;26936;50.524;8.684;2023-09-07T12:18:42;5.33;;;3.27;;
41201;SDS011;26936;50.524;8.684;2023-09-07T12:21:07;3.63;;;2.57;;
41201;SDS011;26936;50.524;8.684;2023-09-07T12:23:33;3.83;;;2.88;;
41201;SDS011;26936;50.524;8.684;2023-09-07T12:25:58;4.87;;;3.00;;
41201;SDS011;26936;50.524;8.684;2023-09-07T12:28:23;5.90;;;3.00;;
41201;SDS011;26936;50.524;8.684;2023-09-07T12:30:49;4.87;;;2.57;;
41201;SDS011;26936;50.524;8.684;2023-09-07T12:33:14;5.10;;;3.17;;
41201;SDS011;26936;50.524;8.684;2023-09-07T12:35:39;6.00;;;3.00;;
41201;SDS011;26936;50.524;8.684;2023-09-07T12:38:04;4.10;;;2.93;;
41201;SDS011;26936;50.524;8.684;2023-09-07T12:40:30;3.57;;;2.77;;
41201;SDS011;26936;50.524;8.684;2023-09-07T12:42:55;6.83;;;3.20;;
41201;SDS011;26936;50.524;8.684;2023-09-07T12:45:20;5.20;;;2.80;;
41201;SDS011;26936;50.524;8.684;2023-09-07T12:47:45;3.37;;;2.63;;
41201;SDS011;26936;50.524;8.684;2023-09-07T12:50:11;7.25;;;3.50;;
41201;SDS011;26936;50.524;8.684;2023-09-07T12:52:37;5.45;;;2.70;;
41201;SDS011;26936;50.524;8.684;2023-09-07T12:55:03;5.07;;;3.45;;
41201;SDS011;26936;50.524;8.684;2023-09-07T12:57:29;3.60;;;2.65;;
41201;SDS011;26936;50.524;8.684;2023-09-07T12:59:54;7.20;;;2.80;;
41201;SDS011;26936;50.524;8.684;2023-09-07T13:02:20;5.38;;;3.20;;
41201;SDS011;26936;50.524;8.684;2023-09-07T13:04:45;4.83;;;2.90;;
41201;SDS011;26936;50.524;8.684;2023-09-07T13:07:10;4.47;;;2.77;;
41201;SDS011;26936;50.524;8.684;2023-09-07T13:09:36;4.67;;;2.90;;
41201;SDS011;26936;50.524;8.684;2023-09-07T13:12:01;3.00;;;2.53;;
41201;SDS011;26936;50.524;8.684;2023-09-07T13:14:26;5.77;;;2.73;;
41201;SDS011;26936;50.524;8.684;2023-09-07T13:16:51;4.00;;;2.80;;
41201;SDS011;26936;50.524;8.684;2023-09-07T13:19:17;3.33;;;2.50;;
41201;SDS011;26936;50.524;8.684;2023-09-07T13:21:42;4.00;;;2.92;;
41201;SDS011;26936;50.524;8.684;2023-09-07T13:24:07;5.27;;;2.73;;
41201;SDS011;26936;50.524;8.684;2023-09-07T13:26:32;3.87;;;2.90;;
41201;SDS011;26936;50.524;8.684;2023-09-07T13:28:58;4.10;;;2.78;;
41201;SDS011;26936;50.524;8.684;2023-09-07T13:31:23;5.75;;;2.80;;
41201;SDS011;26936;50.524;8.684;2023-09-07T13:33:49;6.70;;;3.00;;
41201;SDS011;26936;50.524;8.684;2023-09-07T13:36:14;4.47;;;2.88;;
41201;SDS011;26936;50.524;8.684;2023-09-07T13:38:39;5.27;;;2.50;;
41201;SDS011;26936;50.524;8.684;2023-09-07T13:41:06;3.92;;;2.70;;
41201;SDS011;26936;50.524;8.684;2023-09-07T13:43:31;4.15;;;2.40;;
41201;SDS011;26936;50.524;8.684;2023-09-07T13:45:57;5.73;;;2.80;;
41201;SDS011;26936;50.524;8.684;2023-09-07T13:48:22;4.43;;;2.53;;
41201;SDS011;26936;50.524;8.684;2023-09-07T13:50:47;3.80;;;2.60;;
41201;SDS011;26936;50.524;8.684;2023-09-07T13:53:13;6.63;;;2.60;;
41201;SDS011;26936;50.524;8.684;2023-09-07T13:55:39;5.07;;;2.30;;
41201;SDS011;26936;50.524;8.684;2023-09-07T13:58:06;3.88;;;2.10;;
41201;SDS011;26936;50.524;8.684;2023-09-07T14:00:31;3.43;;;2.20;;
41201;SDS011;26936;50.524;8.684;2023-09-07T14:02:57;3.40;;;2.20;;
41201;SDS011;26936;50.524;8.684;2023-09-07T14:05:22;2.30;;;2.10;;
41201;SDS011;26936;50.524;8.684;2023-09-07T14:07:47;2.67;;;2.28;;
41201;SDS011;26936;50.524;8.684;2023-09-07T14:10:12;3.93;;;2.20;;
41201;SDS011;26936;50.524;8.684;2023-09-07T14:12:38;2.20;;;1.98;;
41201;SDS011;26936;50.524;8.684;2023-09-07T14:15:04;2.87;;;2.10;;
41201;SDS011;26936;50.524;8.684;2023-09-07T14:17:29;2.38;;;2.17;;
41201;SDS011;26936;50.524;8.684;2023-09-07T14:19:55;3.17;;;2.43;;
41201;SDS011;26936;50.524;8.684;2023-09-07T14:22:20;2.90;;;1.95;;
41201;SDS011;26936;50.524;8.684;2023-09-07T14:24:45;2.40;;;1.90;;
41201;SDS011;26936;50.524;8.684;2023-09-07T14:27:11;2.87;;;2.10;;
41201;SDS011;26936;50.524;8.684;2023-09-07T14:29:36;3.17;;;2.17;;
41201;SDS011;26936;50.524;8.684;2023-09-07T14:32:02;2.33;;;2.00;;
41201;SDS011;26936;50.524;8.684;2023-09-07T14:34:29;2.33;;;2.10;;
41201;SDS011;26936;50.524;8.684;2023-09-07T14:36:54;3.13;;;2.10;;
41201;SDS011;26936;50.524;8.684;2023-09-07T14:39:20;3.22;;;2.20;;
41201;SDS011;26936;50.524;8.684;2023-09-07T14:41:49;3.25;;;2.10;;
41201;SDS011;26936;50.524;8.684;2023-09-07T14:44:15;2.45;;;2.15;;